Time;durP1;ratioP1;P1;durP2;ratioP2;P2;SDS_P1;SDS_P2;PMS_P1;PMS_P2;Temp;Humidity;BMP_temperature;BMP_pressure;BME280_temperature;BME280_humidity;BME280_pressure;Samples;Min_cycle;Max_cycle;Signal;HPM_P1;HPM_P2
2022/02/19 00:02:12;;;;;;;8.87;1.97;;;7.10;99.50;;;;;;5031895;28;20128;-70
2022/02/19 00:04:39;;;;;;;15.97;2.20;;;7.10;99.80;;;;;;5031006;28;20030;-70
2022/02/19 00:07:07;;;;;;;10.90;2.30;;;7.10;99.20;;;;;;5031383;28;20021;-70
2022/02/19 00:09:33;;;;;;;12.07;2.08;;;7.20;98.80;;;;;;5031011;28;20167;-70
2022/02/19 00:11:59;;;;;;;7.67;1.77;;;7.10;98.50;;;;;;5013612;28;20036;-70
2022/02/19 00:14:25;;;;;;;8.87;1.47;;;7.20;98.40;;;;;;5030990;28;20100;-70
2022/02/19 00:16:51;;;;;;;13.67;1.90;;;7.20;98.30;;;;;;5031065;28;20032;-70
2022/02/19 00:19:19;;;;;;;13.63;2.03;;;7.20;98.00;;;;;;5030902;28;20053;-70
2022/02/19 00:21:46;;;;;;;11.55;1.80;;;7.20;97.90;;;;;;5031169;28;20037;-70
2022/02/19 00:24:12;;;;;;;12.70;1.53;;;7.20;97.70;;;;;;5030899;28;20091;-70
2022/02/19 00:26:39;;;;;;;6.87;1.50;;;7.10;97.60;;;;;;5031008;28;20467;-70
2022/02/19 00:29:05;;;;;;;10.37;1.43;;;7.10;97.50;;;;;;5030918;28;20021;-70
2022/02/19 00:31:32;;;;;;;11.07;1.70;;;7.20;97.30;;;;;;5030774;28;20030;-70
2022/02/19 00:34:00;;;;;;;10.25;1.40;;;7.20;97.30;;;;;;5012532;28;20052;-70
2022/02/19 00:36:26;;;;;;;10.73;1.97;;;7.20;96.90;;;;;;5013230;28;20041;-70
2022/02/19 00:38:52;;;;;;;8.50;1.63;;;7.20;96.80;;;;;;5030687;28;20026;-70
2022/02/19 00:41:18;;;;;;;10.17;1.50;;;7.10;96.90;;;;;;5030822;28;20032;-70
2022/02/19 00:43:45;;;;;;;9.40;1.80;;;7.10;96.90;;;;;;5012829;28;20032;-70
2022/02/19 00:46:11;;;;;;;12.17;1.80;;;7.20;96.90;;;;;;5013088;28;20025;-70
2022/02/19 00:48:37;;;;;;;13.37;2.00;;;7.20;97.10;;;;;;5030586;28;20037;-70
2022/02/19 00:51:03;;;;;;;10.50;2.03;;;7.20;96.60;;;;;;5031005;28;20035;-70
2022/02/19 00:53:31;;;;;;;11.40;1.50;;;7.10;96.60;;;;;;5012898;28;20041;-70
2022/02/19 00:55:57;;;;;;;8.07;1.80;;;7.20;96.70;;;;;;5030844;28;20021;-70
2022/02/19 00:58:23;;;;;;;11.83;2.03;;;7.10;96.50;;;;;;5030721;28;20037;-70
2022/02/19 01:00:50;;;;;;;10.83;2.33;;;7.10;96.50;;;;;;5030538;28;20044;-70
2022/02/19 01:03:52;;;;;;;8.57;1.60;;;7.20;96.20;;;;;;5022947;28;20533;-70
2022/02/19 01:06:19;;;;;;;11.23;1.90;;;7.20;96.40;;;;;;5030621;28;20112;-70
2022/02/19 01:08:49;;;;;;;10.63;1.67;;;7.20;96.00;;;;;;5030536;28;20022;-70
2022/02/19 01:11:15;;;;;;;12.87;1.70;;;7.10;96.00;;;;;;5030575;28;20041;-70
2022/02/19 01:13:42;;;;;;;10.33;2.23;;;7.10;95.80;;;;;;5012579;28;20021;-70
2022/02/19 01:16:08;;;;;;;10.47;1.77;;;7.10;96.10;;;;;;5012961;28;20578;-70
2022/02/19 01:18:34;;;;;;;9.97;1.43;;;7.10;96.10;;;;;;5030722;28;20025;-70
2022/02/19 01:21:00;;;;;;;9.73;1.60;;;7.10;96.00;;;;;;5030585;28;20386;-70
2022/02/19 01:23:26;;;;;;;8.07;1.47;;;7.10;96.00;;;;;;5012595;28;20040;-70
2022/02/19 01:25:52;;;;;;;8.93;1.53;;;7.00;96.00;;;;;;5012796;28;20029;-70
2022/02/19 01:28:19;;;;;;;9.13;1.47;;;7.10;96.10;;;;;;5030540;28;20091;-70
2022/02/19 01:30:45;;;;;;;10.10;1.60;;;7.00;96.10;;;;;;5030561;28;20032;-70
2022/02/19 01:33:12;;;;;;;10.33;1.73;;;7.00;96.10;;;;;;5012878;28;20112;-70
2022/02/19 01:35:39;;;;;;;10.03;1.50;;;7.10;96.20;;;;;;5012590;28;20512;-70
2022/02/19 01:38:04;;;;;;;7.67;1.57;;;7.00;96.30;;;;;;5012899;28;20033;-70
2022/02/19 01:40:31;;;;;;;9.40;1.60;;;7.00;96.40;;;;;;5012558;28;20033;-70
2022/02/19 01:42:58;;;;;;;7.43;1.73;;;7.00;96.50;;;;;;5012925;28;20026;-70
2022/02/19 01:45:28;;;;;;;10.03;1.40;;;7.00;96.60;;;;;;5013381;28;20021;-70
2022/02/19 01:47:54;;;;;;;11.10;1.60;;;7.00;96.70;;;;;;5016833;28;20469;-70
2022/02/19 01:50:20;;;;;;;14.77;1.80;;;7.00;97.00;;;;;;5016456;28;20033;-70
2022/02/19 01:52:48;;;;;;;11.20;1.40;;;7.00;96.90;;;;;;5016253;28;20033;-70
2022/02/19 01:55:20;;;;;;;11.83;2.00;;;7.00;96.80;;;;;;5016065;28;20490;-70
2022/02/19 01:57:51;;;;;;;12.90;2.20;;;7.00;96.90;;;;;;5000170;28;20029;-70
2022/02/19 02:00:40;;;;;;;7.63;1.50;;;7.10;97.10;;;;;;5022723;28;20401;-70
2022/02/19 02:03:26;;;;;;;9.23;1.77;;;7.10;96.90;;;;;;5032752;28;20046;-70
2022/02/19 02:05:54;;;;;;;11.27;1.40;;;7.00;97.00;;;;;;5015768;28;20059;-70
2022/02/19 02:08:22;;;;;;;12.17;1.67;;;7.00;97.50;;;;;;5033250;28;20029;-70
2022/02/19 02:10:48;;;;;;;11.53;1.73;;;7.10;96.90;;;;;;5014825;28;20124;-70
2022/02/19 02:13:31;;;;;;;13.43;1.30;;;7.10;96.90;;;;;;5014715;28;20044;-68
2022/02/19 02:15:58;;;;;;;10.53;1.97;;;7.10;97.10;;;;;;5014807;28;20552;-68
2022/02/19 02:18:51;;;;;;;10.57;1.93;;;7.10;96.80;;;;;;5024550;23;20050;-88
2022/02/19 02:21:20;;;;;;;11.53;1.77;;;7.10;97.10;;;;;;4993224;28;20030;-85
2022/02/19 02:28:01;;;;;;;8.80;1.60;;;7.00;96.80;;;;;;4986899;23;20137;-70
2022/02/19 02:30:28;;;;;;;7.47;1.60;;;7.10;96.80;;;;;;5015438;28;20032;-69
2022/02/19 02:33:09;;;;;;;9.73;1.80;;;7.10;96.90;;;;;;5015527;28;20482;-69
2022/02/19 02:35:35;;;;;;;9.17;2.27;;;7.00;96.70;;;;;;4999028;28;20022;-69
2022/02/19 02:38:02;;;;;;;12.67;2.13;;;7.00;96.90;;;;;;5015015;28;20120;-69
2022/02/19 02:40:30;;;;;;;13.63;2.00;;;7.00;97.10;;;;;;5015021;28;20038;-69
2022/02/19 02:42:57;;;;;;;6.03;1.77;;;7.00;97.20;;;;;;5015409;28;20445;-69
2022/02/19 02:45:23;;;;;;;11.00;2.10;;;7.10;97.10;;;;;;5014995;28;20280;-69
2022/02/19 02:47:49;;;;;;;10.20;1.77;;;7.10;97.20;;;;;;5032795;28;20033;-70
2022/02/19 02:50:16;;;;;;;10.23;1.70;;;7.10;96.90;;;;;;5015158;28;20034;-69
2022/02/19 02:52:43;;;;;;;13.30;1.63;;;7.10;97.00;;;;;;5032772;28;20033;-69
2022/02/19 02:55:11;;;;;;;6.47;1.63;;;7.10;96.40;;;;;;5014823;28;20029;-70
2022/02/19 02:57:38;;;;;;;5.03;1.23;;;7.10;96.80;;;;;;5014779;28;20033;-70
2022/02/19 03:00:07;;;;;;;14.63;2.80;;;7.10;96.90;;;;;;5014981;28;20124;-70
2022/02/19 03:02:37;;;;;;;9.60;1.70;;;7.10;97.20;;;;;;4999168;28;20512;-70
2022/02/19 03:05:09;;;;;;;10.60;1.52;;;7.10;97.30;;;;;;5014844;28;20040;-69
2022/02/19 03:07:35;;;;;;;8.45;1.52;;;7.00;97.70;;;;;;5014643;28;20029;-69
2022/02/19 03:10:04;;;;;;;9.00;1.50;;;6.90;97.70;;;;;;5014232;28;20432;-69
2022/02/19 03:12:33;;;;;;;10.00;1.93;;;6.90;98.20;;;;;;5014730;28;20160;-69
2022/02/19 03:14:59;;;;;;;7.63;1.40;;;6.90;98.40;;;;;;5014605;28;20029;-69
2022/02/19 03:17:25;;;;;;;14.03;1.60;;;6.90;98.50;;;;;;4998370;28;20021;-69
2022/02/19 03:19:52;;;;;;;9.90;1.47;;;6.80;98.30;;;;;;5014472;28;20033;-69
2022/02/19 03:22:18;;;;;;;6.93;1.50;;;6.80;98.20;;;;;;5014459;28;20025;-70
2022/02/19 03:24:44;;;;;;;12.00;1.80;;;6.80;98.30;;;;;;5014247;28;20021;-69
2022/02/19 03:27:10;;;;;;;10.27;1.60;;;6.80;98.40;;;;;;5014327;28;20029;-70
2022/02/19 03:29:37;;;;;;;8.73;1.57;;;6.80;98.70;;;;;;5014226;28;20047;-69
2022/02/19 03:32:05;;;;;;;10.20;1.50;;;6.80;98.80;;;;;;5014544;28;20486;-69
2022/02/19 03:34:31;;;;;;;11.33;1.60;;;6.80;99.00;;;;;;5014012;28;20065;-70
2022/02/19 03:36:58;;;;;;;9.43;1.40;;;6.70;99.00;;;;;;5014180;28;20068;-69
2022/02/19 03:39:25;;;;;;;9.63;1.90;;;6.70;99.00;;;;;;5014172;28;20025;-69
2022/02/19 03:41:53;;;;;;;10.13;1.90;;;6.60;99.10;;;;;;5014159;28;20083;-69
2022/02/19 03:44:21;;;;;;;4.27;1.37;;;6.60;99.20;;;;;;5013946;28;20418;-70
2022/02/19 03:46:55;;;;;;;13.07;2.73;;;6.60;99.40;;;;;;5014032;28;20120;-70
2022/02/19 03:49:29;;;;;;;9.37;2.00;;;6.60;99.20;;;;;;5013843;28;20021;-70
2022/02/19 03:51:55;;;;;;;9.23;1.30;;;6.60;99.10;;;;;;5031603;28;20032;-70
2022/02/19 03:54:21;;;;;;;9.10;2.43;;;6.60;99.00;;;;;;5013614;28;20029;-68
2022/02/19 03:56:49;;;;;;;10.47;1.50;;;6.70;99.30;;;;;;5013779;28;20025;-69
2022/02/19 03:59:16;;;;;;;8.47;1.60;;;6.60;99.20;;;;;;5031404;28;20028;-70
2022/02/19 04:01:44;;;;;;;8.53;1.60;;;6.70;99.10;;;;;;5013779;28;20075;-70
2022/02/19 04:04:15;;;;;;;7.20;1.47;;;6.70;98.70;;;;;;5013742;28;20397;-70
2022/02/19 04:06:42;;;;;;;9.93;1.73;;;6.70;98.80;;;;;;5014156;28;20548;-69
2022/02/19 04:09:09;;;;;;;8.47;1.60;;;6.70;98.70;;;;;;5013588;28;20120;-70
2022/02/19 04:11:41;;;;;;;8.27;1.20;;;6.70;98.40;;;;;;5013882;28;20096;-70
2022/02/19 04:14:09;;;;;;;10.10;1.35;;;6.70;98.10;;;;;;5013611;28;20040;-70
2022/02/19 04:16:48;;;;;;;9.77;1.63;;;6.70;98.60;;;;;;5031513;28;20061;-69
2022/02/19 04:19:15;;;;;;;8.40;1.90;;;6.80;98.40;;;;;;5013346;28;20453;-69
2022/02/19 04:21:42;;;;;;;8.20;2.00;;;6.80;98.00;;;;;;5031032;28;20116;-69
2022/02/19 04:24:13;;;;;;;5.57;1.30;;;6.80;98.10;;;;;;5013451;28;20057;-69
2022/02/19 04:26:42;;;;;;;11.35;1.20;;;6.80;98.30;;;;;;5013627;28;20021;-69
2022/02/19 04:29:08;;;;;;;8.63;1.37;;;6.80;98.10;;;;;;5031169;28;20038;-68
2022/02/19 04:31:42;;;;;;;11.07;1.77;;;6.80;98.30;;;;;;5013657;28;20029;-70
2022/02/19 04:34:18;;;;;;;10.87;1.50;;;6.80;98.30;;;;;;5013783;28;20059;-69
2022/02/19 04:36:44;;;;;;;9.70;1.23;;;6.80;98.50;;;;;;5031493;28;20031;-70
2022/02/19 04:39:12;;;;;;;9.57;1.30;;;6.80;98.60;;;;;;5013799;28;20033;-69
2022/02/19 04:41:39;;;;;;;;;;;6.80;98.80;;;;;;4997719;28;20444;-70
2022/02/19 04:44:11;;;;;;;5.80;1.30;;;6.80;98.90;;;;;;5013186;28;20064;-69
2022/02/19 04:46:37;;;;;;;9.13;1.73;;;6.70;98.90;;;;;;5030837;28;20441;-70
2022/02/19 04:49:05;;;;;;;9.20;1.97;;;6.70;99.20;;;;;;5030897;28;20223;-70
2022/02/19 04:51:32;;;;;;;7.83;1.50;;;6.70;99.40;;;;;;5013231;28;20030;-70
2022/02/19 04:53:58;;;;;;;8.87;1.57;;;6.60;99.50;;;;;;5013053;28;20036;-68
2022/02/19 04:56:24;;;;;;;11.10;2.00;;;6.60;99.80;;;;;;5013265;28;20030;-70
2022/02/19 04:58:51;;;;;;;10.47;1.70;;;6.50;99.90;;;;;;5013109;28;20033;-69
2022/02/19 05:01:17;;;;;;;8.90;1.43;;;6.60;99.90;;;;;;5012787;28;20037;-69
2022/02/19 05:04:04;;;;;;;12.90;1.50;;;6.50;99.90;;;;;;5012981;28;20033;-69
2022/02/19 05:06:49;;;;;;;12.63;1.67;;;6.50;99.90;;;;;;5031102;28;20036;-70
2022/02/19 05:09:15;;;;;;;7.40;1.47;;;6.50;99.90;;;;;;5012974;28;20086;-70
2022/02/19 05:11:47;;;;;;;9.33;1.57;;;6.50;99.90;;;;;;5012995;28;20033;-70
2022/02/19 05:14:13;;;;;;;14.83;2.20;;;6.50;99.90;;;;;;5030767;28;20406;-70
2022/02/19 05:16:39;;;;;;;6.30;1.30;;;6.50;99.90;;;;;;5013083;28;20030;-70
2022/02/19 05:19:09;;;;;;;;;;;6.40;99.90;;;;;;4998101;28;20033;-70
2022/02/19 05:21:38;;;;;;;13.48;1.73;;;6.40;99.90;;;;;;5017016;28;20405;-70
2022/02/19 05:24:05;;;;;;;8.20;1.40;;;6.40;99.90;;;;;;5000533;28;20533;-70
2022/02/19 05:26:47;;;;;;;11.03;1.80;;;6.30;99.90;;;;;;5016823;28;20038;-70
2022/02/19 05:29:16;;;;;;;8.55;1.73;;;6.30;99.90;;;;;;5016412;28;20029;-70
2022/02/19 05:31:43;;;;;;;10.70;2.20;;;6.20;99.90;;;;;;5016496;28;20030;-70
2022/02/19 05:34:32;;;;;;;11.65;1.95;;;6.20;99.90;;;;;;5016495;28;20029;-69
2022/02/19 05:37:03;;;;;;;8.53;1.70;;;6.20;99.90;;;;;;5016827;28;20128;-70
2022/02/19 05:39:33;;;;;;;8.33;1.77;;;6.10;99.90;;;;;;5016574;28;20030;-70
2022/02/19 05:42:02;;;;;;;7.00;1.30;;;6.10;99.90;;;;;;5016886;28;20026;-70
2022/02/19 05:44:32;;;;;;;11.83;1.50;;;6.10;99.90;;;;;;5016337;28;20183;-70
2022/02/19 05:47:03;;;;;;;10.27;1.53;;;6.10;99.90;;;;;;5016267;28;20120;-70
2022/02/19 05:49:30;;;;;;;10.23;1.53;;;6.10;99.90;;;;;;5016031;28;20048;-70
2022/02/19 05:52:12;;;;;;;9.53;1.80;;;6.10;99.90;;;;;;5016028;28;20025;-69
2022/02/19 05:54:47;;;;;;;10.57;1.87;;;6.00;99.90;;;;;;5015943;28;20029;-68
2022/02/19 05:57:22;;;;;;;11.77;1.60;;;6.10;99.90;;;;;;5015988;28;20176;-68
2022/02/19 05:59:50;;;;;;;6.80;1.50;;;6.10;99.90;;;;;;5015945;28;20665;-69
2022/02/19 06:02:17;;;;;;;7.53;1.70;;;6.00;99.90;;;;;;5015883;28;20036;-72
2022/02/19 06:04:43;;;;;;;8.17;1.40;;;6.00;99.90;;;;;;5033507;28;20032;-71
2022/02/19 06:07:10;;;;;;;8.57;1.30;;;5.90;99.90;;;;;;5015910;28;20025;-71
2022/02/19 06:09:37;;;;;;;7.27;1.20;;;5.90;99.90;;;;;;5015806;28;20025;-71
2022/02/19 06:12:04;;;;;;;10.57;1.37;;;5.90;99.90;;;;;;5015696;28;20036;-70
2022/02/19 06:14:47;;;;;;;10.67;1.50;;;5.70;99.90;;;;;;5015591;28;20029;-69
2022/02/19 06:17:14;;;;;;;7.67;1.57;;;5.70;99.90;;;;;;5033402;28;20029;-71
2022/02/19 06:19:41;;;;;;;13.97;1.87;;;5.70;99.90;;;;;;5015513;28;20057;-69
2022/02/19 06:22:10;;;;;;;10.02;2.22;;;5.70;99.90;;;;;;5015568;28;20026;-72
2022/02/19 06:24:38;;;;;;;10.67;1.40;;;5.70;99.90;;;;;;5015299;28;20040;-68
2022/02/19 06:27:05;;;;;;;10.90;1.53;;;5.60;99.90;;;;;;5015421;28;20052;-69
2022/02/19 06:29:40;;;;;;;8.33;1.63;;;5.60;99.90;;;;;;5015346;28;20040;-69
2022/02/19 06:32:09;;;;;;;11.27;2.20;;;5.50;99.90;;;;;;5014555;28;20026;-68
2022/02/19 06:34:39;;;;;;;9.37;1.80;;;5.50;99.90;;;;;;5015167;28;20022;-68
2022/02/19 06:37:12;;;;;;;9.30;1.70;;;5.50;99.90;;;;;;5008375;28;20456;-69
2022/02/19 06:39:38;;;;;;;9.33;1.40;;;5.50;99.90;;;;;;5011616;28;20021;-68
2022/02/19 06:42:05;;;;;;;10.13;1.90;;;5.60;99.90;;;;;;5013847;28;20442;-68
2022/02/19 06:44:51;;;;;;;8.30;1.53;;;5.60;99.90;;;;;;5013912;28;20073;-68
2022/02/19 06:47:17;;;;;;;10.07;1.63;;;5.60;99.90;;;;;;5013710;28;20388;-68
2022/02/19 06:49:43;;;;;;;12.03;2.10;;;5.70;99.90;;;;;;5013650;28;20037;-68
2022/02/19 06:52:10;;;;;;;11.43;1.90;;;5.80;99.90;;;;;;5013076;28;20107;-68
2022/02/19 06:54:36;;;;;;;11.57;2.03;;;5.80;99.90;;;;;;5013560;28;20383;-68
2022/02/19 06:57:03;;;;;;;8.63;1.47;;;5.90;99.90;;;;;;5013311;28;20102;-68
2022/02/19 06:59:29;;;;;;;10.97;1.60;;;5.90;99.90;;;;;;5022076;28;20036;-68
2022/02/19 07:01:56;;;;;;;12.17;1.83;;;5.90;99.90;;;;;;5029682;28;20040;-68
2022/02/19 07:04:25;;;;;;;8.13;1.30;;;5.90;99.90;;;;;;5029361;28;20125;-68
2022/02/19 07:06:53;;;;;;;12.20;1.60;;;5.90;99.90;;;;;;5030463;28;20443;-68
2022/02/19 07:09:19;;;;;;;8.50;2.43;;;5.90;99.90;;;;;;5029262;28;20048;-68
2022/02/19 07:11:47;;;;;;;10.23;1.40;;;6.00;99.90;;;;;;5029118;28;20084;-68
2022/02/19 07:14:13;;;;;;;9.40;1.93;;;6.00;99.90;;;;;;5025221;28;20090;-68
2022/02/19 07:16:39;;;;;;;8.17;1.50;;;6.00;99.90;;;;;;5012388;28;20034;-69
2022/02/19 07:19:07;;;;;;;11.30;1.40;;;6.00;99.90;;;;;;5012369;28;20048;-69
2022/02/19 07:21:33;;;;;;;8.77;1.70;;;6.00;99.90;;;;;;5012164;28;20124;-68
2022/02/19 07:23:59;;;;;;;8.07;1.67;;;6.10;99.90;;;;;;5012307;28;20129;-68
2022/02/19 07:26:29;;;;;;;12.90;1.73;;;6.10;99.90;;;;;;5028933;28;20026;-68
2022/02/19 07:28:59;;;;;;;10.10;1.70;;;6.10;99.90;;;;;;5012436;28;20083;-68
2022/02/19 07:31:29;;;;;;;13.33;2.07;;;6.10;99.90;;;;;;5011837;28;20037;-68
2022/02/19 07:33:56;;;;;;;15.70;2.03;;;6.10;99.90;;;;;;5019941;28;20030;-69
2022/02/19 07:36:29;;;;;;;10.50;1.63;;;6.10;99.90;;;;;;5011796;28;20029;-68
2022/02/19 07:38:57;;;;;;;9.20;1.70;;;6.10;99.90;;;;;;5015241;28;20071;-69
2022/02/19 07:41:23;;;;;;;14.17;2.90;;;6.00;99.90;;;;;;5012218;28;20144;-69
2022/02/19 07:44:05;;;;;;;11.97;2.00;;;6.10;99.90;;;;;;5011086;28;20051;-69
2022/02/19 07:47:04;;;;;;;11.30;1.50;;;6.10;99.90;;;;;;4985745;28;20036;-69
2022/02/19 07:58:34;;;;;;;10.27;1.33;;;6.10;99.90;;;;;;5012096;28;20064;-68
2022/02/19 08:01:04;;;;;;;12.30;1.67;;;6.20;99.90;;;;;;5012230;28;20045;-67
2022/02/19 08:03:40;;;;;;;12.27;1.95;;;6.20;99.90;;;;;;5011796;28;20072;-69
2022/02/19 08:06:07;;;;;;;14.50;3.23;;;6.10;99.90;;;;;;5012246;28;20038;-68
2022/02/19 08:08:37;;;;;;;14.38;2.58;;;6.20;99.90;;;;;;5011546;28;20125;-69
2022/02/19 08:11:10;;;;;;;13.30;2.63;;;6.20;99.90;;;;;;5012136;28;20040;-69
2022/02/19 08:13:36;;;;;;;14.37;2.07;;;6.30;99.90;;;;;;5029359;28;20034;-70
2022/02/19 08:16:02;;;;;;;8.60;1.43;;;6.30;99.90;;;;;;5029758;28;20033;-69
2022/02/19 08:18:28;;;;;;;11.13;2.30;;;6.30;99.90;;;;;;5046263;23;20036;-69
2022/02/19 08:20:54;;;;;;;8.67;1.80;;;6.30;99.90;;;;;;5050093;28;20362;-69
2022/02/19 08:23:21;;;;;;;7.10;1.87;;;6.20;99.90;;;;;;5031403;28;20099;-69
2022/02/19 08:25:48;;;;;;;10.33;1.90;;;6.20;99.90;;;;;;5050176;28;20025;-69
2022/02/19 08:28:14;;;;;;;9.07;1.83;;;6.20;99.90;;;;;;5049788;28;20337;-69
2022/02/19 08:30:42;;;;;;;8.57;1.63;;;6.20;99.90;;;;;;5032007;28;20047;-69
2022/02/19 08:33:09;;;;;;;10.47;2.00;;;6.20;99.90;;;;;;5048978;28;20128;-69
2022/02/19 08:35:36;;;;;;;15.07;1.87;;;6.20;99.90;;;;;;5048684;28;20052;-69
2022/02/19 08:38:03;;;;;;;14.80;2.37;;;6.30;99.90;;;;;;5030768;28;20037;-70
2022/02/19 08:40:30;;;;;;;13.50;1.77;;;6.30;99.90;;;;;;5049559;28;20051;-70
2022/02/19 08:42:56;;;;;;;13.60;2.20;;;6.40;99.90;;;;;;5049157;28;20120;-70
2022/02/19 08:45:22;;;;;;;8.30;1.67;;;6.30;99.90;;;;;;5049515;28;20568;-70
2022/02/19 08:47:53;;;;;;;9.47;1.63;;;6.30;99.90;;;;;;5049537;28;20396;-70
2022/02/19 08:50:19;;;;;;;8.93;1.60;;;6.40;99.90;;;;;;5049510;28;20104;-70
2022/02/19 08:52:48;;;;;;;13.17;1.83;;;6.40;99.90;;;;;;5049082;28;20461;-70
2022/02/19 08:55:16;;;;;;;16.33;2.17;;;6.40;99.90;;;;;;5051997;28;20040;-70
2022/02/19 08:57:44;;;;;;;9.67;1.97;;;6.50;99.90;;;;;;5053101;28;20049;-70
2022/02/19 09:00:13;;;;;;;11.50;1.50;;;6.50;99.90;;;;;;5053439;28;20489;-70
2022/02/19 09:02:40;;;;;;;10.23;1.47;;;6.40;99.90;;;;;;5053383;28;20060;-70
2022/02/19 09:05:09;;;;;;;10.20;1.60;;;6.50;99.90;;;;;;5053373;28;20032;-70
2022/02/19 09:07:36;;;;;;;9.55;1.70;;;6.50;99.90;;;;;;5052638;28;20053;-70
2022/02/19 09:10:04;;;;;;;9.87;1.60;;;6.50;99.90;;;;;;5053214;28;20037;-70
2022/02/19 09:12:30;;;;;;;10.50;1.53;;;6.50;99.90;;;;;;5053025;28;20021;-70
2022/02/19 09:14:56;;;;;;;15.17;1.83;;;6.60;99.90;;;;;;5053061;28;20029;-70
2022/02/19 09:17:22;;;;;;;13.27;1.63;;;6.60;99.90;;;;;;5052914;28;20108;-70
2022/02/19 09:19:48;;;;;;;13.80;1.57;;;6.60;99.90;;;;;;5034919;28;20072;-70
2022/02/19 09:22:14;;;;;;;11.30;1.77;;;6.60;99.90;;;;;;5052543;28;20056;-70
2022/02/19 09:24:40;;;;;;;12.27;1.83;;;6.70;99.90;;;;;;5034803;28;20048;-70
2022/02/19 09:27:06;;;;;;;20.67;2.33;;;6.70;99.90;;;;;;5052591;28;20025;-70
2022/02/19 09:29:32;;;;;;;14.43;1.80;;;6.70;99.90;;;;;;5052894;28;20056;-70
2022/02/19 09:31:58;;;;;;;12.37;1.70;;;6.70;99.90;;;;;;5034800;28;20079;-70
2022/02/19 09:34:24;;;;;;;14.43;1.90;;;6.80;99.90;;;;;;5052691;28;20029;-70
2022/02/19 09:36:51;;;;;;;16.57;3.20;;;6.80;99.90;;;;;;5052178;28;20037;-70
2022/02/19 09:39:17;;;;;;;13.67;1.90;;;6.80;99.90;;;;;;5052789;28;20025;-70
2022/02/19 09:41:45;;;;;;;10.63;1.70;;;6.80;99.90;;;;;;5052266;28;20029;-70
2022/02/19 09:44:11;;;;;;;12.87;2.57;;;6.90;99.90;;;;;;5034790;28;20422;-70
2022/02/19 09:46:38;;;;;;;11.47;2.00;;;6.90;99.90;;;;;;5034577;28;20440;-70
2022/02/19 09:49:05;;;;;;;9.20;1.97;;;6.90;99.90;;;;;;5052770;28;20696;-70
2022/02/19 09:51:32;;;;;;;9.83;1.93;;;7.00;99.90;;;;;;5052470;28;20394;-70
2022/02/19 09:53:58;;;;;;;8.17;2.03;;;7.10;99.90;;;;;;5034524;28;20492;-70
2022/02/19 09:56:28;;;;;;;12.63;1.60;;;7.10;99.90;;;;;;5052641;28;20108;-70
2022/02/19 09:58:58;;;;;;;14.68;2.13;;;7.20;99.90;;;;;;5052222;28;20053;-70
2022/02/19 10:01:26;;;;;;;12.47;1.83;;;7.30;99.90;;;;;;5052175;28;20048;-70
2022/02/19 10:04:04;;;;;;;11.40;1.73;;;7.30;99.90;;;;;;5052180;28;20033;-70
2022/02/19 10:06:35;;;;;;;12.33;2.03;;;7.40;99.90;;;;;;5050903;28;20367;-70
2022/02/19 10:09:12;;;;;;;20.77;2.50;;;7.50;99.90;;;;;;5052450;28;20474;-70
2022/02/19 10:11:39;;;;;;;9.23;1.70;;;7.60;99.90;;;;;;5034095;28;20039;-70
2022/02/19 10:14:30;;;;;;;11.40;2.37;;;7.60;99.80;;;;;;5052039;28;20029;-70
2022/02/19 10:17:15;;;;;;;14.13;2.03;;;7.60;99.50;;;;;;5042814;28;20069;-70
2022/02/19 10:19:56;;;;;;;8.83;1.70;;;7.70;99.30;;;;;;5033836;28;20532;-70
2022/02/19 10:22:30;;;;;;;11.27;1.90;;;7.70;98.50;;;;;;5051397;28;20050;-70
2022/02/19 10:25:08;;;;;;;8.20;1.60;;;7.60;98.60;;;;;;5051581;28;20033;-70
2022/02/19 10:27:51;;;;;;;10.97;2.30;;;7.60;98.80;;;;;;5033559;28;20040;-70
2022/02/19 10:30:20;;;;;;;14.93;2.20;;;7.60;99.00;;;;;;5051967;28;20091;-70
2022/02/19 10:32:58;;;;;;;9.00;2.00;;;7.60;98.50;;;;;;5051541;28;20017;-70
2022/02/19 10:35:42;;;;;;;11.50;2.17;;;7.50;98.60;;;;;;5051506;28;20033;-70
2022/02/19 10:38:11;;;;;;;10.53;2.27;;;7.50;98.60;;;;;;5051005;28;20280;-70
2022/02/19 10:40:39;;;;;;;11.33;2.30;;;7.50;99.00;;;;;;5051583;28;20380;-70
2022/02/19 10:43:32;;;;;;;12.88;2.33;;;7.50;99.20;;;;;;5033412;28;20333;-70
2022/02/19 10:46:04;;;;;;;11.20;2.20;;;7.70;98.80;;;;;;5047818;28;20389;-70
2022/02/19 10:48:35;;;;;;;11.33;1.80;;;7.80;98.00;;;;;;5033392;28;20037;-70
2022/02/19 10:51:11;;;;;;;12.03;2.20;;;7.80;98.50;;;;;;5051538;28;20058;-70
2022/02/19 10:53:59;;;;;;;12.43;2.20;;;7.90;98.50;;;;;;5050693;28;20025;-71
2022/02/19 10:56:28;;;;;;;11.52;1.90;;;7.90;98.60;;;;;;5033520;28;20114;-70
2022/02/19 10:59:08;;;;;;;8.48;1.88;;;8.00;97.70;;;;;;5051063;28;20041;-70
2022/02/19 11:01:46;;;;;;;16.03;2.27;;;8.00;97.70;;;;;;5033249;28;20497;-70
2022/02/19 11:04:14;;;;;;;12.60;2.33;;;8.00;97.90;;;;;;5051046;28;20524;-70
2022/02/19 11:06:41;;;;;;;7.93;1.50;;;8.00;97.50;;;;;;5050825;28;20020;-70
2022/02/19 11:09:08;;;;;;;8.23;1.77;;;8.00;97.60;;;;;;5032979;28;20479;-70
2022/02/19 11:11:36;;;;;;;9.00;1.57;;;8.10;97.50;;;;;;5050844;28;20033;-70
2022/02/19 11:14:06;;;;;;;11.23;1.80;;;8.20;97.00;;;;;;5050772;28;20444;-70
2022/02/19 11:16:34;;;;;;;7.80;1.80;;;8.20;96.60;;;;;;5050798;28;20424;-70
2022/02/19 11:19:01;;;;;;;9.67;1.87;;;8.30;96.20;;;;;;5050695;28;20451;-70
2022/02/19 11:21:29;;;;;;;9.70;1.43;;;8.40;95.50;;;;;;5050597;28;20124;-70
2022/02/19 11:24:00;;;;;;;10.10;1.63;;;8.40;95.10;;;;;;5050424;28;20028;-71
2022/02/19 11:26:27;;;;;;;7.97;1.40;;;8.40;94.90;;;;;;5050873;28;20068;-70
2022/02/19 11:28:59;;;;;;;5.30;1.77;;;8.50;95.00;;;;;;5050396;28;20489;-70
2022/02/19 11:31:28;;;;;;;8.07;1.83;;;8.50;95.20;;;;;;5032552;28;20079;-70
2022/02/19 11:33:59;;;;;;;9.65;1.30;;;8.50;94.10;;;;;;5050296;28;20063;-70
2022/02/19 11:36:26;;;;;;;7.33;1.53;;;8.60;94.10;;;;;;5032954;28;20420;-70
2022/02/19 11:38:55;;;;;;;8.00;1.50;;;8.60;93.90;;;;;;5049868;28;20033;-70
2022/02/19 11:41:39;;;;;;;7.65;1.38;;;8.60;93.80;;;;;;5050320;28;20093;-71
2022/02/19 11:44:26;;;;;;;7.97;1.80;;;8.70;93.40;;;;;;5050057;28;20071;-70
2022/02/19 11:46:55;;;;;;;7.90;2.37;;;8.70;93.20;;;;;;5050219;28;20029;-70
2022/02/19 11:49:27;;;;;;;11.05;3.20;;;8.70;93.20;;;;;;5032481;28;20409;-71
2022/02/19 11:52:14;;;;;;;7.30;1.53;;;8.80;93.30;;;;;;5049704;28;20123;-70
2022/02/19 11:54:41;;;;;;;9.07;1.87;;;8.80;92.70;;;;;;5049861;28;20040;-71
2022/02/19 11:57:33;;;;;;;6.57;1.43;;;8.80;92.60;;;;;;5050017;28;20040;-69
2022/02/19 12:00:18;;;;;;;8.63;1.30;;;8.80;92.60;;;;;;5029294;28;20512;-71
2022/02/19 12:03:27;;;;;;;7.97;1.45;;;8.80;92.30;;;;;;5036565;28;20036;-69
2022/02/19 12:06:15;;;;;;;7.57;1.57;;;8.80;93.10;;;;;;5050124;28;20029;-69
2022/02/19 12:08:49;;;;;;;8.60;1.60;;;8.70;93.30;;;;;;5049221;28;20083;-69
2022/02/19 12:11:18;;;;;;;8.20;1.63;;;8.70;93.80;;;;;;5049862;28;20388;-70
2022/02/19 12:13:52;;;;;;;7.78;1.42;;;8.80;93.50;;;;;;5049633;28;20032;-70
2022/02/19 12:19:02;;;;;;;7.47;1.40;;;8.90;91.50;;;;;;5049774;28;20033;-69
2022/02/19 12:21:39;;;;;;;4.90;1.10;;;9.00;91.00;;;;;;5049650;28;20043;-69
2022/02/19 12:24:21;;;;;;;4.63;1.00;;;8.90;90.90;;;;;;5049700;28;20052;-69
2022/02/19 12:27:07;;;;;;;6.97;1.33;;;9.00;91.10;;;;;;5049397;28;20389;-70
2022/02/19 12:29:41;;;;;;;6.10;1.60;;;9.00;91.60;;;;;;5049164;28;20096;-69
2022/02/19 12:32:22;;;;;;;9.53;1.43;;;9.00;90.90;;;;;;5031577;28;20025;-69
2022/02/19 12:34:53;;;;;;;4.37;1.00;;;8.90;90.50;;;;;;5049459;28;20037;-69
2022/02/19 12:37:20;;;;;;;8.23;1.33;;;8.80;91.00;;;;;;5030917;28;20338;-69
2022/02/19 12:39:49;;;;;;;5.53;1.60;;;8.70;90.70;;;;;;5049680;28;20055;-69
2022/02/19 12:42:22;;;;;;;6.77;1.40;;;8.70;90.00;;;;;;5049361;28;20266;-70
2022/02/19 12:45:06;;;;;;;7.63;1.40;;;8.70;90.40;;;;;;5049323;28;20521;-69
2022/02/19 12:47:34;;;;;;;7.73;1.30;;;8.70;90.00;;;;;;5049315;28;20510;-70
2022/02/19 12:50:03;;;;;;;6.45;1.30;;;8.80;89.60;;;;;;5031803;28;20021;-70
2022/02/19 12:52:29;;;;;;;6.60;1.10;;;8.90;89.40;;;;;;5048769;28;20401;-70
2022/02/19 12:54:55;;;;;;;7.07;1.40;;;8.90;88.80;;;;;;5049129;28;20033;-70
2022/02/19 12:57:23;;;;;;;7.77;2.30;;;8.80;89.60;;;;;;5031324;28;20039;-70
2022/02/19 12:59:53;;;;;;;14.97;2.40;;;8.80;90.60;;;;;;5049296;28;20032;-70
2022/02/19 13:02:21;;;;;;;10.93;2.40;;;8.80;91.50;;;;;;5014786;28;20028;-70
2022/02/19 13:04:49;;;;;;;13.03;2.03;;;8.80;91.40;;;;;;5049331;28;20022;-70
2022/02/19 13:07:23;;;;;;;7.17;1.70;;;8.80;91.70;;;;;;5048702;28;20025;-70
2022/02/19 13:09:51;;;;;;;7.70;1.97;;;8.90;92.00;;;;;;5049355;28;20028;-70
2022/02/19 13:12:24;;;;;;;9.17;1.60;;;8.90;90.90;;;;;;5049437;28;20104;-69
2022/02/19 13:14:51;;;;;;;11.27;1.93;;;9.00;91.10;;;;;;5049225;28;20111;-70
2022/02/19 13:17:17;;;;;;;9.90;2.00;;;9.00;92.30;;;;;;5049028;28;20021;-70
2022/02/19 13:19:44;;;;;;;10.30;1.93;;;9.10;92.70;;;;;;5049295;28;20119;-70
2022/02/19 13:22:20;;;;;;;13.07;1.87;;;9.10;92.30;;;;;;5048468;28;20037;-70
2022/02/19 13:24:47;;;;;;;6.77;1.30;;;9.10;91.90;;;;;;5048951;28;20044;-70